Time;durP1;ratioP1;P1;durP2;ratioP2;P2;SDS_P1;SDS_P2;PMS_P1;PMS_P2;Temp;Humidity;BMP_temperature;BMP_pressure;BME280_temperature;BME280_humidity;BME280_pressure;Samples;Min_cycle;Max_cycle;Signal;HPM_P1;HPM_P2
2023/06/19 01:32:10;;;;;;;7.82;5.57;;;;;;;;;;4942843;29;20055;-82
2023/06/19 01:34:59;;;;;;;8.23;5.50;;;;;;;;;;4928434;29;20044;-87
2023/06/19 01:37:45;;;;;;;6.57;5.00;;;;;;;;;;4914602;29;20048;-87
2023/06/19 01:40:31;;;;;;;7.65;5.60;;;;;;;;;;4922277;29;20043;-88
2023/06/19 01:43:18;;;;;;;8.30;5.60;;;;;;;;;;4936270;29;20486;-87
2023/06/19 01:46:06;;;;;;;7.38;5.47;;;;;;;;;;4931093;29;20047;-88
2023/06/19 01:48:54;;;;;;;7.40;5.63;;;;;;;;;;4931343;29;20497;-87
2023/06/19 01:51:45;;;;;;;7.80;5.63;;;;;;;;;;4931271;29;20055;-88
2023/06/19 01:54:34;;;;;;;7.35;5.25;;;;;;;;;;4918213;29;20047;-88
2023/06/19 01:57:27;;;;;;;7.78;5.50;;;;;;;;;;4924997;29;20052;-88
2023/06/19 02:00:17;;;;;;;8.48;5.32;;;;;;;;;;4918163;29;20044;-87
2023/06/19 02:03:10;;;;;;;8.30;5.13;;;;;;;;;;4918049;29;20052;-88
2023/06/19 02:06:00;;;;;;;7.65;5.05;;;;;;;;;;4918204;29;20493;-87
2023/06/19 02:08:46;;;;;;;9.30;5.88;;;;;;;;;;4917875;29;20051;-88
2023/06/19 02:11:32;;;;;;;7.95;4.97;;;;;;;;;;4931244;29;20043;-87
2023/06/19 02:14:19;;;;;;;12.73;5.93;;;;;;;;;;4931687;29;20481;-88
2023/06/19 02:17:06;;;;;;;14.45;5.85;;;;;;;;;;4929427;29;20047;-88
2023/06/19 02:19:55;;;;;;;8.65;5.95;;;;;;;;;;4918134;29;20043;-88
2023/06/19 02:22:45;;;;;;;13.32;6.20;;;;;;;;;;4925064;29;20040;-88
2023/06/19 02:25:45;;;;;;;9.13;5.45;;;;;;;;;;4918086;29;20055;-88
2023/06/19 02:28:39;;;;;;;10.20;6.47;;;;;;;;;;4931384;29;20048;-88
2023/06/19 02:31:25;;;;;;;12.48;7.22;;;;;;;;;;4931086;29;20043;-88
2023/06/19 02:34:14;;;;;;;14.93;7.07;;;;;;;;;;4938856;29;20051;-88
2023/06/19 02:37:10;;;;;;;13.32;6.78;;;;;;;;;;4917503;29;20047;-88
2023/06/19 02:40:03;;;;;;;9.55;6.28;;;;;;;;;;4917259;29;20040;-88
2023/06/19 02:43:18;;;;;;;8.95;6.00;;;;;;;;;;4930841;29;20047;-89
2023/06/19 02:46:28;;;;;;;9.88;5.82;;;;;;;;;;4918091;29;20048;-89
2023/06/19 02:49:41;;;;;;;6.55;5.53;;;;;;;;;;4917956;29;20040;-88
2023/06/19 02:52:51;;;;;;;6.75;5.60;;;;;;;;;;4916915;29;20044;-88
2023/06/19 02:55:54;;;;;;;8.13;5.22;;;;;;;;;;4916025;29;20402;-89
2023/06/19 02:58:41;;;;;;;9.30;5.10;;;;;;;;;;4930476;29;20048;-88
2023/06/19 03:01:27;;;;;;;6.90;5.18;;;;;;;;;;4923926;29;20051;-88
2023/06/19 03:04:13;;;;;;;8.57;5.60;;;;;;;;;;4930535;29;20048;-87
2023/06/19 03:06:58;;;;;;;6.07;4.95;;;;;;;;;;4930121;29;20048;-88
2023/06/19 03:09:44;;;;;;;7.22;5.32;;;;;;;;;;4929712;29;20051;-88
2023/06/19 03:12:30;;;;;;;6.50;5.20;;;;;;;;;;4923955;29;20056;-88
2023/06/19 03:15:16;;;;;;;7.53;5.28;;;;;;;;;;4917144;29;20482;-88
2023/06/19 03:18:08;;;;;;;8.10;5.35;;;;;;;;;;4917472;29;20048;-88
2023/06/19 03:20:55;;;;;;;11.73;5.30;;;;;;;;;;4916971;29;20059;-88
2023/06/19 03:23:42;;;;;;;6.63;5.43;;;;;;;;;;4928935;29;20047;-88
2023/06/19 03:26:27;;;;;;;8.23;5.15;;;;;;;;;;4923368;29;20077;-88
2023/06/19 03:30:29;;;;;;;;;;;;;;;;;;;;;
2023/06/19 03:42:40;;;;;;;8.13;4.85;;;;;;;;;;4841754;29;20408;-90
2023/06/19 03:50:19;;;;;;;9.50;5.25;;;;;;;;;;4813810;29;20544;-88
2023/06/19 03:54:30;;;;;;;12.40;5.75;;;;;;;;;;4848347;29;20054;-88
2023/06/19 03:57:54;;;;;;;11.93;5.35;;;;;;;;;;4849577;29;20471;-89
2023/06/19 04:00:55;;;;;;;14.68;5.30;;;;;;;;;;4917282;29;20498;-87
2023/06/19 04:03:49;;;;;;;12.63;5.65;;;;;;;;;;4912535;29;20039;-88
2023/06/19 04:06:41;;;;;;;7.50;5.35;;;;;;;;;;4928860;29;20051;-90
2023/06/19 04:09:33;;;;;;;14.45;5.22;;;;;;;;;;4918642;29;20035;-89
2023/06/19 04:12:22;;;;;;;9.30;4.97;;;;;;;;;;4921538;29;20053;-89
2023/06/19 04:15:16;;;;;;;15.55;6.03;;;;;;;;;;4935026;29;20043;-90
2023/06/19 04:32:24;;;;;;;15.73;5.25;;;;;;;;;;4945469;29;20043;-90
2023/06/19 04:44:03;;;;;;;8.38;4.90;;;;;;;;;;4970784;23;20048;-86
2023/06/19 04:46:48;;;;;;;8.85;4.97;;;;;;;;;;4930488;28;20051;-86
2023/06/19 04:49:33;;;;;;;7.43;4.72;;;;;;;;;;4929221;29;20052;-87
2023/06/19 04:52:20;;;;;;;6.47;4.68;;;;;;;;;;4928483;29;20047;-85
2023/06/19 04:55:09;;;;;;;10.38;5.15;;;;;;;;;;4942393;29;20048;-84
2023/06/19 05:01:12;;;;;;;8.65;6.00;;;;;;;;;;4942094;29;20405;-84
2023/06/19 05:03:59;;;;;;;10.18;6.38;;;;;;;;;;4930912;29;20043;-83
2023/06/19 05:06:44;;;;;;;29.55;20.45;;;;;;;;;;4941179;29;20056;-85
2023/06/19 05:09:30;;;;;;;64.45;51.85;;;;;;;;;;4951515;29;20039;-84
2023/06/19 05:12:15;;;;;;;9.73;5.50;;;;;;;;;;4940290;29;20059;-85
2023/06/19 05:15:01;;;;;;;12.73;5.90;;;;;;;;;;4939359;29;20044;-84
2023/06/19 05:17:46;;;;;;;8.23;4.53;;;;;;;;;;4942529;29;20048;-85
2023/06/19 05:20:32;;;;;;;14.43;10.30;;;;;;;;;;4949098;29;20043;-85
2023/06/19 05:23:17;;;;;;;42.00;34.53;;;;;;;;;;4931923;28;20032;-83
2023/06/19 05:26:04;;;;;;;12.10;7.45;;;;;;;;;;4954948;29;20044;-84
2023/06/19 05:28:49;;;;;;;17.70;13.07;;;;;;;;;;4933001;28;20051;-84
2023/06/19 05:31:35;;;;;;;37.92;27.65;;;;;;;;;;4940910;28;20043;-86
2023/06/19 05:34:20;;;;;;;93.32;63.20;;;;;;;;;;4937390;28;20059;-86
2023/06/19 05:37:06;;;;;;;55.42;36.47;;;;;;;;;;4933832;28;20043;-87
2023/06/19 05:39:51;;;;;;;10.25;8.10;;;;;;;;;;4942441;29;20043;-83
2023/06/19 05:42:37;;;;;;;6.50;4.25;;;;;;;;;;4943729;29;20043;-86
2023/06/19 05:45:22;;;;;;;16.95;13.80;;;;;;;;;;4957693;29;20043;-84
2023/06/19 05:48:08;;;;;;;12.20;6.35;;;;;;;;;;4943551;29;20047;-86
2023/06/19 05:50:55;;;;;;;6.47;4.22;;;;;;;;;;4932507;28;20044;-87
2023/06/19 05:53:41;;;;;;;7.53;4.82;;;;;;;;;;4953331;29;20054;-86
2023/06/19 05:56:26;;;;;;;6.07;4.25;;;;;;;;;;4930525;28;20043;-86
2023/06/19 05:59:14;;;;;;;6.25;3.85;;;;;;;;;;4932585;28;20039;-87
2023/06/19 06:01:58;;;;;;;5.20;3.95;;;;;;;;;;4953917;29;20051;-84
2023/06/19 06:04:43;;;;;;;7.93;4.40;;;;;;;;;;4950360;29;20403;-84
2023/06/19 06:07:30;;;;;;;7.55;4.47;;;;;;;;;;4926266;28;20054;-86
2023/06/19 06:10:16;;;;;;;7.30;4.40;;;;;;;;;;4939658;29;20496;-85
2023/06/19 06:13:02;;;;;;;9.05;5.40;;;;;;;;;;4949042;29;20036;-86
2023/06/19 06:15:48;;;;;;;11.00;4.60;;;;;;;;;;4944234;28;20052;-85
2023/06/19 06:18:34;;;;;;;6.88;4.95;;;;;;;;;;4951678;29;20500;-86
2023/06/19 06:21:19;;;;;;;5.82;4.75;;;;;;;;;;4939187;29;20047;-85
2023/06/19 06:24:05;;;;;;;8.35;4.72;;;;;;;;;;4943585;28;20051;-86
2023/06/19 06:26:51;;;;;;;7.32;4.32;;;;;;;;;;4938484;28;20062;-85
2023/06/19 06:29:37;;;;;;;6.50;4.45;;;;;;;;;;4924063;28;20040;-84
2023/06/19 06:32:22;;;;;;;5.65;4.38;;;;;;;;;;4945570;29;20055;-88
2023/06/19 06:35:08;;;;;;;7.65;4.53;;;;;;;;;;4947842;29;20416;-85
2023/06/19 06:37:53;;;;;;;8.27;4.63;;;;;;;;;;4943318;28;20425;-84
2023/06/19 06:40:41;;;;;;;7.72;4.28;;;;;;;;;;4939972;29;20051;-87
2023/06/19 06:43:27;;;;;;;8.70;4.60;;;;;;;;;;4929431;28;20074;-87
2023/06/19 06:46:15;;;;;;;8.23;4.55;;;;;;;;;;4931414;28;20481;-85
2023/06/19 06:49:01;;;;;;;5.38;3.95;;;;;;;;;;4929737;28;20050;-85
2023/06/19 06:51:46;;;;;;;5.97;4.47;;;;;;;;;;4951811;29;20047;-87
2023/06/19 06:54:32;;;;;;;10.20;4.13;;;;;;;;;;4933386;28;20055;-87
2023/06/19 06:57:18;;;;;;;7.03;3.88;;;;;;;;;;4929716;28;20059;-88
2023/06/19 07:00:06;;;;;;;6.00;4.25;;;;;;;;;;4930542;28;20044;-87
2023/06/19 07:02:51;;;;;;;8.63;4.22;;;;;;;;;;4931131;28;20400;-87
2023/06/19 07:05:37;;;;;;;6.50;4.10;;;;;;;;;;4929444;28;20047;-87
2023/06/19 07:08:23;;;;;;;10.45;4.38;;;;;;;;;;4937006;29;20496;-86
2023/06/19 07:11:08;;;;;;;8.80;4.50;;;;;;;;;;4929389;28;20469;-87
2023/06/19 07:13:54;;;;;;;5.05;3.90;;;;;;;;;;4929819;28;20040;-88
2023/06/19 07:16:39;;;;;;;8.60;4.43;;;;;;;;;;4935932;29;20047;-87
2023/06/19 07:19:25;;;;;;;6.15;4.20;;;;;;;;;;4931983;28;20047;-88
2023/06/19 07:22:11;;;;;;;6.22;4.18;;;;;;;;;;4931437;28;20053;-86
2023/06/19 07:24:56;;;;;;;7.50;4.20;;;;;;;;;;4934662;29;20513;-87
2023/06/19 07:27:42;;;;;;;6.45;3.97;;;;;;;;;;4932024;28;20051;-87
2023/06/19 07:30:28;;;;;;;9.82;4.28;;;;;;;;;;4936166;29;20036;-89
2023/06/19 07:33:13;;;;;;;5.55;4.43;;;;;;;;;;4930133;28;20493;-89
2023/06/19 07:35:59;;;;;;;8.93;4.50;;;;;;;;;;4929478;28;20039;-87
2023/06/19 07:38:45;;;;;;;7.65;4.38;;;;;;;;;;4931747;28;20055;-87
2023/06/19 07:41:31;;;;;;;9.70;4.07;;;;;;;;;;4941846;28;20047;-87
2023/06/19 07:44:18;;;;;;;6.88;4.55;;;;;;;;;;4937341;29;20078;-87
2023/06/19 07:47:03;;;;;;;6.80;4.30;;;;;;;;;;4938398;29;20043;-87
2023/06/19 07:49:48;;;;;;;5.78;4.30;;;;;;;;;;4938889;29;20058;-85
2023/06/19 07:52:34;;;;;;;7.25;4.45;;;;;;;;;;4933809;29;20404;-86
2023/06/19 07:55:20;;;;;;;7.93;4.03;;;;;;;;;;4953112;29;20043;-86
2023/06/19 07:58:05;;;;;;;8.70;4.50;;;;;;;;;;4931812;28;20064;-86
2023/06/19 08:00:51;;;;;;;7.13;4.30;;;;;;;;;;4931907;28;20496;-87
2023/06/19 08:03:37;;;;;;;8.65;4.57;;;;;;;;;;4931519;28;20384;-87
2023/06/19 08:06:22;;;;;;;4.82;3.80;;;;;;;;;;4932195;28;20511;-86
2023/06/19 08:09:08;;;;;;;7.13;4.07;;;;;;;;;;4944310;28;20047;-85
2023/06/19 08:11:53;;;;;;;8.55;4.80;;;;;;;;;;4930836;28;20062;-84
2023/06/19 08:14:39;;;;;;;11.98;4.20;;;;;;;;;;4943936;28;20047;-83
2023/06/19 08:17:25;;;;;;;9.50;4.57;;;;;;;;;;4944135;28;20404;-82
2023/06/19 08:20:12;;;;;;;5.82;4.10;;;;;;;;;;4952024;29;20051;-83
2023/06/19 08:22:56;;;;;;;7.57;4.28;;;;;;;;;;4944302;28;20047;-84
2023/06/19 08:25:42;;;;;;;9.35;3.95;;;;;;;;;;4944136;28;20048;-84
2023/06/19 08:28:27;;;;;;;8.20;4.25;;;;;;;;;;4937906;29;20404;-83
2023/06/19 08:31:12;;;;;;;8.98;5.00;;;;;;;;;;4930890;28;20043;-84
2023/06/19 08:33:58;;;;;;;10.10;4.57;;;;;;;;;;4951323;29;20043;-84
2023/06/19 08:36:43;;;;;;;5.35;3.60;;;;;;;;;;4952465;29;20039;-83
2023/06/19 08:39:29;;;;;;;6.28;4.50;;;;;;;;;;4951464;29;20039;-83
2023/06/19 08:42:15;;;;;;;9.05;4.63;;;;;;;;;;4951978;29;20408;-83
2023/06/19 08:45:00;;;;;;;8.48;4.05;;;;;;;;;;4937961;29;20055;-83
2023/06/19 08:47:48;;;;;;;7.05;4.10;;;;;;;;;;4942091;29;20043;-83
2023/06/19 08:50:33;;;;;;;7.07;4.20;;;;;;;;;;4942186;29;20044;-82
2023/06/19 08:53:19;;;;;;;6.80;4.03;;;;;;;;;;4948948;28;20039;-83
2023/06/19 08:56:04;;;;;;;9.40;4.20;;;;;;;;;;4940719;29;20039;-83
2023/06/19 08:58:50;;;;;;;7.63;3.97;;;;;;;;;;4953846;29;20035;-82
2023/06/19 09:01:37;;;;;;;6.43;3.90;;;;;;;;;;4923562;28;20051;-83
2023/06/19 09:04:26;;;;;;;6.80;4.25;;;;;;;;;;4940248;29;20493;-83
2023/06/19 09:07:13;;;;;;;7.38;4.38;;;;;;;;;;4930930;28;20047;-82
2023/06/19 09:10:15;;;;;;;6.18;3.97;;;;;;;;;;4945011;28;20054;-84
2023/06/19 09:13:03;;;;;;;8.38;4.20;;;;;;;;;;4954618;29;20388;-86
2023/06/19 09:15:59;;;;;;;6.97;3.95;;;;;;;;;;4947723;28;20043;-86
2023/06/19 09:18:48;;;;;;;6.38;3.80;;;;;;;;;;4944755;28;20468;-85
2023/06/19 09:21:38;;;;;;;5.97;3.50;;;;;;;;;;4931958;28;20059;-87
2023/06/19 09:24:24;;;;;;;6.20;4.28;;;;;;;;;;4937946;29;20269;-84
2023/06/19 09:27:13;;;;;;;6.03;3.80;;;;;;;;;;4951227;29;20055;-84
2023/06/19 09:29:58;;;;;;;5.63;3.97;;;;;;;;;;4933516;28;20416;-85
2023/06/19 09:32:44;;;;;;;8.50;4.10;;;;;;;;;;4948637;29;20043;-84
2023/06/19 09:35:29;;;;;;;6.68;4.25;;;;;;;;;;4940083;29;20048;-84
2023/06/19 09:38:24;;;;;;;5.43;4.13;;;;;;;;;;4933613;28;20048;-84
2023/06/19 09:41:09;;;;;;;6.43;3.90;;;;;;;;;;4940662;29;20039;-85
2023/06/19 09:43:59;;;;;;;4.80;3.70;;;;;;;;;;4945121;28;20452;-84
2023/06/19 09:46:48;;;;;;;6.43;3.90;;;;;;;;;;4927008;28;20400;-87
2023/06/19 09:49:35;;;;;;;5.68;4.05;;;;;;;;;;4940429;28;20051;-86
2023/06/19 09:52:24;;;;;;;6.43;3.63;;;;;;;;;;4945058;28;20480;-84
2023/06/19 09:55:14;;;;;;;5.80;3.78;;;;;;;;;;4944292;28;20404;-84
2023/06/19 09:58:00;;;;;;;11.52;3.95;;;;;;;;;;4949469;29;20489;-85
2023/06/19 10:00:49;;;;;;;6.95;3.90;;;;;;;;;;4929841;28;20071;-84
2023/06/19 10:03:36;;;;;;;7.53;3.80;;;;;;;;;;4937934;29;20035;-85
2023/06/19 10:06:22;;;;;;;5.97;3.83;;;;;;;;;;4945194;28;20420;-84
2023/06/19 10:09:09;;;;;;;7.45;3.58;;;;;;;;;;4945469;29;20047;-85
2023/06/19 10:11:54;;;;;;;8.20;3.92;;;;;;;;;;4951201;29;20067;-84
2023/06/19 10:14:50;;;;;;;9.30;3.53;;;;;;;;;;4935673;29;20047;-86
2023/06/19 10:17:36;;;;;;;7.60;3.63;;;;;;;;;;4948763;29;20047;-85
2023/06/19 10:20:31;;;;;;;6.20;3.85;;;;;;;;;;4946285;29;20051;-85
2023/06/19 10:23:23;;;;;;;;;;;;;;;;;;4947054;29;20047;-83
2023/06/19 10:26:15;;;;;;;4.68;3.50;;;;;;;;;;4951045;29;20252;-84
2023/06/19 10:29:04;;;;;;;5.93;3.42;;;;;;;;;;4946173;29;20043;-84
2023/06/19 10:31:50;;;;;;;4.60;3.28;;;;;;;;;;4948246;29;20043;-84
2023/06/19 10:34:36;;;;;;;6.82;3.90;;;;;;;;;;4938714;29;20047;-83
2023/06/19 10:37:32;;;;;;;7.05;3.55;;;;;;;;;;4952447;29;20400;-84
2023/06/19 10:40:18;;;;;;;4.70;3.45;;;;;;;;;;4949934;29;20404;-82
2023/06/19 10:43:04;;;;;;;6.97;4.75;;;;;;;;;;4950684;29;20047;-83
2023/06/19 10:45:50;;;;;;;6.60;3.88;;;;;;;;;;4953877;29;20481;-84
2023/06/19 10:48:35;;;;;;;5.57;3.92;;;;;;;;;;4960669;28;20055;-84
2023/06/19 10:51:21;;;;;;;4.88;3.63;;;;;;;;;;4953124;29;20031;-82
2023/06/19 10:54:06;;;;;;;6.68;4.00;;;;;;;;;;4944107;28;20207;-87
2023/06/19 10:56:51;;;;;;;5.30;3.80;;;;;;;;;;4931936;28;20051;-84
2023/06/19 10:59:39;;;;;;;5.03;3.70;;;;;;;;;;4951786;29;20039;-84
2023/06/19 11:02:25;;;;;;;5.72;3.53;;;;;;;;;;4940422;29;20047;-85
2023/06/19 11:05:13;;;;;;;5.10;3.55;;;;;;;;;;4934423;28;20055;-86
2023/06/19 11:07:59;;;;;;;4.28;3.35;;;;;;;;;;4936699;28;20047;-86
2023/06/19 11:10:48;;;;;;;8.05;3.60;;;;;;;;;;4936293;28;20055;-86
2023/06/19 11:13:34;;;;;;;5.55;3.78;;;;;;;;;;4935065;28;20043;-86
2023/06/19 11:16:38;;;;;;;5.72;3.60;;;;;;;;;;4933404;28;20047;-88
2023/06/19 11:19:31;;;;;;;5.25;3.80;;;;;;;;;;4933341;28;20039;-84
2023/06/19 11:22:16;;;;;;;9.05;3.50;;;;;;;;;;4948706;28;20063;-86
2023/06/19 11:25:20;;;;;;;5.20;3.63;;;;;;;;;;4933754;28;20047;-88
2023/06/19 11:28:17;;;;;;;;;;;;;;;;;;4933640;28;20051;-83
2023/06/19 11:31:38;;;;;;;6.25;3.90;;;;;;;;;;4947154;28;19918;-86
2023/06/19 11:35:21;;;;;;;4.10;3.42;;;;;;;;;;4932798;28;20047;-87
2023/06/19 11:46:26;;;;;;;6.03;3.38;;;;;;;;;;4937760;29;20085;-88
2023/06/19 11:54:30;;;;;;;4.65;3.65;;;;;;;;;;4871627;29;20048;-89
2023/06/19 12:02:05;;;;;;;5.43;3.90;;;;;;;;;;4830973;29;20046;-89
2023/06/19 12:05:05;;;;;;;6.15;3.72;;;;;;;;;;4843618;29;20090;-86
2023/06/19 12:08:04;;;;;;;6.97;4.18;;;;;;;;;;4865938;29;20037;-87
2023/06/19 12:10:55;;;;;;;6.15;4.07;;;;;;;;;;4852802;29;20041;-88
2023/06/19 12:13:41;;;;;;;6.70;3.72;;;;;;;;;;4866090;29;20053;-89
2023/06/19 12:52:32;;;;;;;;;;;;;;;;;;;;;
2023/06/19 12:56:16;;;;;;;8.95;4.10;;;;;;;;;;4812068;29;20050;-88
2023/06/19 13:31:09;;;;;;;8.63;4.10;;;;;;;;;;4810447;29;20059;-86
2023/06/19 13:51:23;;;;;;;5.15;4.50;;;;;;;;;;4846683;29;20054;-87
2023/06/19 13:54:09;;;;;;;11.35;4.97;;;;;;;;;;4874267;29;20580;-85
2023/06/19 13:56:56;;;;;;;6.72;4.65;;;;;;;;;;4878314;29;21838;-86
2023/06/19 14:00:08;;;;;;;5.40;4.38;;;;;;;;;;4899474;29;20060;-86
2023/06/19 14:02:58;;;;;;;5.60;4.05;;;;;;;;;;4890218;29;20048;-84
2023/06/19 14:05:46;;;;;;;6.13;3.88;;;;;;;;;;4920971;29;20051;-86
2023/06/19 14:09:01;;;;;;;6.32;4.50;;;;;;;;;;4932486;28;20039;-87
2023/06/19 14:11:47;;;;;;;6.75;4.53;;;;;;;;;;4931229;28;20039;-85
2023/06/19 14:14:33;;;;;;;7.55;4.28;;;;;;;;;;4931393;28;20047;-85
2023/06/19 14:17:23;;;;;;;7.63;4.60;;;;;;;;;;4928148;28;20039;-86
2023/06/19 14:20:16;;;;;;;8.77;4.43;;;;;;;;;;4931365;28;20039;-88
2023/06/19 14:23:04;;;;;;;8.18;4.63;;;;;;;;;;4930665;28;20047;-87
2023/06/19 14:25:50;;;;;;;7.13;4.57;;;;;;;;;;4928683;28;20039;-85
2023/06/19 14:28:46;;;;;;;5.50;4.50;;;;;;;;;;4928195;28;20043;-89
2023/06/19 14:31:33;;;;;;;4.80;4.30;;;;;;;;;;4930215;28;20138;-87
2023/06/19 14:34:20;;;;;;;4.90;4.32;;;;;;;;;;4929508;28;20059;-87
2023/06/19 14:37:06;;;;;;;8.52;5.18;;;;;;;;;;4930258;28;20043;-87
2023/06/19 14:39:51;;;;;;;5.50;4.72;;;;;;;;;;4928408;28;20055;-88
2023/06/19 14:42:37;;;;;;;6.50;4.57;;;;;;;;;;4927141;28;20050;-87
2023/06/19 14:45:24;;;;;;;8.30;4.65;;;;;;;;;;4924898;28;20056;-87
2023/06/19 14:48:09;;;;;;;5.18;4.30;;;;;;;;;;4941748;28;20051;-87
2023/06/19 14:50:54;;;;;;;6.35;4.50;;;;;;;;;;4927888;28;20048;-86
2023/06/19 14:53:40;;;;;;;6.53;4.35;;;;;;;;;;4930672;28;20051;-87
2023/06/19 14:56:26;;;;;;;7.28;4.40;;;;;;;;;;4946252;28;20051;-87
2023/06/19 14:59:11;;;;;;;5.10;4.53;;;;;;;;;;4931729;28;20481;-86
2023/06/19 15:01:57;;;;;;;7.68;4.80;;;;;;;;;;4939600;29;20039;-87
2023/06/19 15:04:43;;;;;;;6.63;4.50;;;;;;;;;;4946034;28;20043;-87
2023/06/19 15:07:29;;;;;;;6.60;4.45;;;;;;;;;;4940160;29;20043;-85
2023/06/19 15:10:14;;;;;;;8.55;4.70;;;;;;;;;;4939621;29;20050;-86
2023/06/19 15:12:59;;;;;;;6.20;4.25;;;;;;;;;;4953793;29;20051;-86
2023/06/19 15:15:45;;;;;;;11.55;4.93;;;;;;;;;;4939609;29;20047;-85
2023/06/19 15:18:30;;;;;;;5.22;4.28;;;;;;;;;;4944907;28;20047;-86
2023/06/19 15:21:16;;;;;;;5.25;4.43;;;;;;;;;;4932940;28;20047;-84
2023/06/19 15:24:02;;;;;;;4.80;4.28;;;;;;;;;;4932823;28;20408;-85
2023/06/19 15:26:47;;;;;;;7.80;4.40;;;;;;;;;;4952856;29;20043;-85
2023/06/19 15:29:33;;;;;;;5.93;4.25;;;;;;;;;;4953004;29;20043;-86
2023/06/19 15:32:18;;;;;;;5.97;4.35;;;;;;;;;;4953470;29;20051;-85
2023/06/19 15:35:03;;;;;;;6.22;4.30;;;;;;;;;;4938354;29;20039;-85
2023/06/19 15:37:48;;;;;;;6.93;4.20;;;;;;;;;;4931588;28;20054;-87
2023/06/19 15:40:34;;;;;;;8.60;4.40;;;;;;;;;;4930490;28;20043;-86
2023/06/19 15:43:19;;;;;;;5.63;4.13;;;;;;;;;;4930197;28;20777;-88
2023/06/19 15:46:07;;;;;;;7.38;4.53;;;;;;;;;;4930849;28;20055;-87
2023/06/19 15:48:53;;;;;;;5.05;4.07;;;;;;;;;;4930558;28;20035;-87
2023/06/19 15:51:38;;;;;;;8.65;4.65;;;;;;;;;;4928455;28;20437;-87
2023/06/19 15:54:24;;;;;;;5.05;4.05;;;;;;;;;;4925234;28;20051;-87
2023/06/19 15:57:12;;;;;;;5.40;4.32;;;;;;;;;;4941049;28;20044;-86
2023/06/19 15:59:57;;;;;;;7.03;4.80;;;;;;;;;;4941718;28;20039;-84
2023/06/19 16:02:47;;;;;;;5.50;4.00;;;;;;;;;;4931672;28;20040;-86
2023/06/19 16:05:32;;;;;;;5.80;4.60;;;;;;;;;;4943645;29;20396;-87
2023/06/19 16:08:18;;;;;;;7.35;4.40;;;;;;;;;;4928151;28;20071;-85
2023/06/19 16:11:04;;;;;;;7.07;4.78;;;;;;;;;;4935402;29;20505;-86
2023/06/19 16:13:50;;;;;;;8.13;4.53;;;;;;;;;;4936582;29;20416;-85
2023/06/19 16:16:36;;;;;;;6.90;4.68;;;;;;;;;;4946821;29;20043;-85
2023/06/19 16:19:22;;;;;;;7.22;4.60;;;;;;;;;;4940981;28;20524;-85
2023/06/19 16:22:10;;;;;;;4.82;4.18;;;;;;;;;;4930247;28;20051;-85
2023/06/19 16:24:55;;;;;;;4.80;4.30;;;;;;;;;;4944911;28;20051;-86
2023/06/19 16:27:41;;;;;;;5.75;4.20;;;;;;;;;;4938034;29;20051;-86
2023/06/19 16:30:28;;;;;;;4.80;4.38;;;;;;;;;;4942119;28;20051;-86
2023/06/19 16:33:13;;;;;;;7.10;4.60;;;;;;;;;;4942589;28;20040;-85
2023/06/19 16:35:58;;;;;;;5.82;4.60;;;;;;;;;;4924447;29;20078;-86
2023/06/19 16:38:44;;;;;;;7.30;4.68;;;;;;;;;;4944693;28;20054;-85
2023/06/19 16:41:29;;;;;;;6.53;4.47;;;;;;;;;;4935400;29;20412;-86
2023/06/19 16:44:17;;;;;;;6.22;4.43;;;;;;;;;;4926740;29;20059;-88
2023/06/19 16:47:06;;;;;;;6.95;4.60;;;;;;;;;;4946748;29;20047;-86
2023/06/19 16:49:52;;;;;;;8.07;4.60;;;;;;;;;;4941311;28;20416;-87
2023/06/19 16:52:37;;;;;;;8.02;4.60;;;;;;;;;;4937665;29;20055;-86
2023/06/19 16:55:24;;;;;;;7.72;4.80;;;;;;;;;;4937718;29;20408;-86
2023/06/19 16:58:09;;;;;;;5.78;4.30;;;;;;;;;;4926651;29;20048;-83
2023/06/19 17:00:55;;;;;;;8.93;4.85;;;;;;;;;;4950738;29;20051;-83
2023/06/19 17:03:40;;;;;;;5.82;4.93;;;;;;;;;;4946227;29;20055;-84
2023/06/19 17:06:26;;;;;;;8.32;4.50;;;;;;;;;;4935320;29;20051;-84
2023/06/19 17:09:31;;;;;;;7.32;4.63;;;;;;;;;;4937815;29;20055;-84
2023/06/19 17:12:16;;;;;;;5.65;4.65;;;;;;;;;;4945797;29;20040;-84
2023/06/19 17:15:02;;;;;;;10.32;5.00;;;;;;;;;;4952905;28;20035;-84
2023/06/19 17:17:47;;;;;;;9.57;5.25;;;;;;;;;;4940999;29;20051;-84
2023/06/19 17:20:33;;;;;;;6.47;4.60;;;;;;;;;;4947505;29;20404;-84
2023/06/19 17:23:19;;;;;;;5.72;4.63;;;;;;;;;;4955738;29;20055;-83
2023/06/19 17:26:04;;;;;;;6.70;5.03;;;;;;;;;;4953661;29;20035;-84
2023/06/19 17:28:49;;;;;;;6.00;4.90;;;;;;;;;;4944867;28;20050;-83
2023/06/19 17:31:34;;;;;;;5.57;4.65;;;;;;;;;;4949188;29;20040;-83
2023/06/19 17:34:21;;;;;;;7.00;5.38;;;;;;;;;;4949384;29;20492;-84
2023/06/19 17:37:06;;;;;;;6.22;5.13;;;;;;;;;;4938174;29;20043;-84
2023/06/19 17:39:53;;;;;;;11.30;4.78;;;;;;;;;;4944511;28;20052;-84
2023/06/19 17:42:47;;;;;;;7.13;5.07;;;;;;;;;;4944035;28;20052;-88
2023/06/19 17:45:35;;;;;;;;;;;;;;;;;;4931646;28;20039;-89
2023/06/19 17:48:23;;;;;;;15.00;5.70;;;;;;;;;;4944321;28;20351;-87
2023/06/19 17:51:11;;;;;;;8.48;5.53;;;;;;;;;;4931298;28;20047;-86
2023/06/19 17:53:56;;;;;;;11.90;5.47;;;;;;;;;;4930465;28;20043;-86
2023/06/19 17:56:42;;;;;;;9.60;5.30;;;;;;;;;;4931410;28;20501;-88
2023/06/19 17:59:28;;;;;;;9.15;6.30;;;;;;;;;;4938339;29;20401;-88
2023/06/19 18:02:14;;;;;;;12.88;6.82;;;;;;;;;;4931172;28;20055;-86
2023/06/19 18:04:59;;;;;;;12.65;7.68;;;;;;;;;;4930650;28;20051;-86
2023/06/19 18:07:45;;;;;;;19.83;7.85;;;;;;;;;;4936989;29;20039;-86
2023/06/19 18:10:30;;;;;;;14.70;7.53;;;;;;;;;;4948644;29;20051;-86
2023/06/19 18:13:16;;;;;;;12.93;6.93;;;;;;;;;;4945125;28;20408;-87
2023/06/19 18:16:01;;;;;;;14.18;6.93;;;;;;;;;;4932894;28;20035;-87
2023/06/19 18:18:46;;;;;;;11.65;6.85;;;;;;;;;;4930729;28;20047;-86
2023/06/19 18:21:33;;;;;;;9.32;6.55;;;;;;;;;;4931898;28;20067;-85
2023/06/19 18:24:19;;;;;;;11.40;6.45;;;;;;;;;;4931853;28;20047;-87
2023/06/19 18:27:06;;;;;;;10.77;5.95;;;;;;;;;;4928114;28;20484;-88
2023/06/19 18:29:52;;;;;;;7.82;5.72;;;;;;;;;;4932647;29;20059;-86
2023/06/19 18:32:37;;;;;;;11.13;6.45;;;;;;;;;;4937309;29;20039;-84
2023/06/19 18:35:22;;;;;;;10.80;6.90;;;;;;;;;;4946116;29;20092;-85
2023/06/19 18:38:07;;;;;;;17.33;7.07;;;;;;;;;;4946666;29;20047;-84
2023/06/19 18:40:53;;;;;;;10.63;5.80;;;;;;;;;;4945402;29;20043;-83
2023/06/19 18:43:38;;;;;;;19.63;6.50;;;;;;;;;;4947697;29;20047;-83
2023/06/19 18:46:24;;;;;;;15.27;7.28;;;;;;;;;;4937706;29;20048;-85
2023/06/19 18:49:09;;;;;;;13.18;6.60;;;;;;;;;;4937065;29;20055;-83
2023/06/19 18:51:54;;;;;;;11.18;6.90;;;;;;;;;;4948204;29;20051;-83
2023/06/19 18:54:39;;;;;;;12.82;6.53;;;;;;;;;;4946715;29;20040;-83
2023/06/19 18:57:29;;;;;;;9.60;6.30;;;;;;;;;;4944270;29;20068;-83
2023/06/19 19:00:16;;;;;;;8.57;5.65;;;;;;;;;;4942176;28;20047;-83
2023/06/19 19:03:01;;;;;;;14.50;6.38;;;;;;;;;;4942720;28;20048;-84
2023/06/19 19:05:48;;;;;;;10.95;5.85;;;;;;;;;;4945663;29;20047;-83
2023/06/19 19:08:34;;;;;;;7.97;5.72;;;;;;;;;;4944827;29;20609;-83
2023/06/19 19:11:19;;;;;;;11.82;5.60;;;;;;;;;;4947803;29;20039;-84
2023/06/19 19:14:05;;;;;;;12.70;5.75;;;;;;;;;;4942646;28;20044;-85
2023/06/19 19:16:50;;;;;;;8.70;6.05;;;;;;;;;;4947122;29;20492;-86
2023/06/19 19:19:36;;;;;;;10.30;5.80;;;;;;;;;;4934618;29;20069;-84
2023/06/19 19:22:21;;;;;;;10.13;5.78;;;;;;;;;;4946972;29;20046;-86
2023/06/19 19:25:13;;;;;;;8.75;5.50;;;;;;;;;;4941441;28;20060;-86
2023/06/19 19:27:59;;;;;;;15.05;9.13;;;;;;;;;;4950823;29;20043;-85
2023/06/19 19:30:44;;;;;;;11.38;7.72;;;;;;;;;;4943897;28;20050;-86
2023/06/19 19:33:30;;;;;;;8.27;5.88;;;;;;;;;;4944581;28;20043;-86
2023/06/19 19:36:16;;;;;;;8.82;5.75;;;;;;;;;;4946012;29;20400;-85
2023/06/19 19:39:04;;;;;;;7.80;5.38;;;;;;;;;;4949816;28;20051;-84
2023/06/19 19:41:55;;;;;;;8.38;5.38;;;;;;;;;;4948946;29;20059;-87
2023/06/19 19:44:40;;;;;;;7.53;5.40;;;;;;;;;;4948023;29;20051;-83
2023/06/19 19:47:26;;;;;;;8.18;5.47;;;;;;;;;;4942327;28;20401;-86
2023/06/19 19:50:12;;;;;;;7.32;5.63;;;;;;;;;;4952744;29;20039;-83
2023/06/19 19:52:57;;;;;;;10.32;5.60;;;;;;;;;;4923821;29;20413;-84
2023/06/19 19:55:42;;;;;;;8.18;5.40;;;;;;;;;;4941557;28;20047;-84
2023/06/19 19:58:27;;;;;;;6.65;5.28;;;;;;;;;;4942743;29;20476;-83
2023/06/19 20:01:13;;;;;;;7.18;5.38;;;;;;;;;;4938658;29;20485;-83
2023/06/19 20:03:58;;;;;;;7.22;5.47;;;;;;;;;;4951438;29;20043;-83
2023/06/19 20:06:44;;;;;;;9.70;5.68;;;;;;;;;;4934988;29;20042;-83
2023/06/19 20:09:35;;;;;;;10.77;6.00;;;;;;;;;;4946367;29;20047;-83
2023/06/19 20:12:23;;;;;;;6.20;4.78;;;;;;;;;;4937441;29;20051;-82
2023/06/19 20:15:15;;;;;;;8.95;5.72;;;;;;;;;;4945795;29;20039;-84
2023/06/19 20:18:01;;;;;;;6.40;5.10;;;;;;;;;;4934636;29;20040;-83
2023/06/19 20:20:47;;;;;;;8.00;5.55;;;;;;;;;;4942713;29;20039;-82
2023/06/19 20:23:32;;;;;;;9.65;5.60;;;;;;;;;;4941615;28;20051;-83
2023/06/19 20:26:18;;;;;;;8.38;5.53;;;;;;;;;;4937770;28;20051;-84
2023/06/19 20:29:04;;;;;;;9.82;5.60;;;;;;;;;;4939305;28;20060;-82
2023/06/19 20:31:49;;;;;;;8.77;5.78;;;;;;;;;;4945766;29;20051;-81
2023/06/19 20:34:35;;;;;;;6.95;5.68;;;;;;;;;;4945921;29;20481;-83
2023/06/19 20:37:20;;;;;;;10.32;5.43;;;;;;;;;;4931497;28;20059;-83
2023/06/19 20:40:07;;;;;;;9.25;5.80;;;;;;;;;;4946940;29;20035;-83
2023/06/19 20:42:54;;;;;;;6.93;5.45;;;;;;;;;;4933848;29;20036;-85
2023/06/19 20:45:42;;;;;;;10.70;5.18;;;;;;;;;;4934320;29;20051;-82